Time;durP1;ratioP1;P1;durP2;ratioP2;P2;SDS_P1;SDS_P2;PMS_P1;PMS_P2;Temp;Humidity;BMP_temperature;BMP_pressure;BME280_temperature;BME280_humidity;BME280_pressure;Samples;Min_cycle;Max_cycle;Signal;HPM_P1;HPM_P2
2023/12/14 00:00:24;;;;;;;;;0.50;0.50;;;;;-146.67;59.33;75158.78;5062271;28;61755;-75
2023/12/14 00:02:49;;;;;;;;;3.50;1.00;;;;;-146.67;59.36;75166.78;5062314;28;61878;-75
2023/12/14 00:05:14;;;;;;;;;1.25;1.00;;;;;-146.67;59.35;75168.78;5061958;28;61964;-75
2023/12/14 00:07:40;;;;;;;;;0.00;0.00;;;;;-146.67;59.02;75176.75;5062056;28;62161;-75
2023/12/14 00:10:06;;;;;;;;;1.50;0.50;;;;;-146.67;58.76;75172.78;5057657;28;62145;-75
2023/12/14 00:12:32;;;;;;;;;1.50;1.50;;;;;-146.67;58.69;75178.75;5042468;28;62366;-75
2023/12/14 00:14:57;;;;;;;;;1.00;1.00;;;;;-146.67;58.68;75188.75;5041229;28;62677;-75
2023/12/14 00:17:22;;;;;;;;;0.00;0.00;;;;;-146.67;58.53;75182.75;5041993;28;63184;-75
2023/12/14 00:19:48;;;;;;;;;0.00;0.00;;;;;-146.67;58.36;75174.75;5041762;28;61829;-75
2023/12/14 00:22:13;;;;;;;;;2.50;0.75;;;;;-146.67;58.13;75176.75;5040649;28;61719;-75
2023/12/14 00:24:38;;;;;;;;;0.00;0.00;;;;;-146.67;58.08;75206.72;5045180;28;62013;-75
2023/12/14 00:27:04;;;;;;;;;1.00;0.00;;;;;-146.67;58.07;75204.72;5062417;28;62108;-75
2023/12/14 00:29:29;;;;;;;;;0.00;0.00;;;;;-146.67;57.60;75204.72;5060197;28;62097;-76
2023/12/14 00:31:55;;;;;;;;;1.00;1.00;;;;;-146.67;57.54;75194.72;5082432;27;61852;-75
2023/12/14 00:34:20;;;;;;;;;2.00;1.00;;;;;-146.67;57.92;75192.75;5081209;27;61851;-75
2023/12/14 00:36:45;;;;;;;;;0.00;0.00;;;;;-146.67;57.80;75202.72;5076894;27;61856;-76
2023/12/14 00:39:11;;;;;;;;;1.75;0.00;;;;;-146.67;58.45;75208.72;5061654;28;62030;-76
2023/12/14 00:41:37;;;;;;;;;1.00;1.00;;;;;-146.67;57.79;75216.69;5075521;28;61952;-76
2023/12/14 00:44:02;;;;;;;;;2.00;0.25;;;;;-146.67;58.06;75226.69;5065976;27;61994;-76
2023/12/14 00:46:27;;;;;;;;;1.00;1.00;;;;;-146.67;57.53;75230.69;5061300;28;62206;-76
2023/12/14 00:48:53;;;;;;;;;1.00;0.50;;;;;-146.67;57.50;75240.66;5060464;28;62240;-76
2023/12/14 00:51:18;;;;;;;;;0.00;0.00;;;;;-146.67;57.41;75230.69;5060120;28;62441;-76
2023/12/14 00:53:43;;;;;;;;;1.00;0.00;;;;;-146.67;57.35;75242.66;5060466;28;62244;-76
2023/12/14 00:56:09;;;;;;;;;1.00;0.00;;;;;-146.67;57.06;75252.66;5059819;28;62116;-75
2023/12/14 00:58:34;;;;;;;;;2.00;0.50;;;;;-146.67;56.96;75248.66;5061464;28;62368;-76
2023/12/14 01:01:00;;;;;;;;;0.00;0.00;;;;;-146.67;57.07;75270.63;5061838;28;62219;-76
2023/12/14 01:03:25;;;;;;;;;0.00;0.00;;;;;-146.67;57.24;75258.63;5060514;28;62457;-75
2023/12/14 01:05:50;;;;;;;;;2.00;0.00;;;;;-146.67;57.14;75258.63;5061612;28;61970;-76
2023/12/14 01:08:16;;;;;;;;;1.00;1.00;;;;;-146.67;58.42;75280.59;5061915;28;62415;-76
2023/12/14 01:10:41;;;;;;;;;0.00;0.00;;;;;-146.67;69.68;75306.56;5058883;28;62083;-75
2023/12/14 01:13:07;;;;;;;;;0.00;0.00;;;;;-146.67;74.57;75322.53;5053233;28;62816;-75
2023/12/14 01:15:33;;;;;;;;;2.00;1.00;;;;;-146.67;64.76;75330.53;5039996;28;61937;-75
2023/12/14 01:17:58;;;;;;;;;0.00;0.00;;;;;-146.67;63.56;75334.50;5039646;28;62052;-75
2023/12/14 01:20:24;;;;;;;;;1.75;1.00;;;;;-146.67;62.72;75328.53;5055121;28;61988;-76
2023/12/14 01:22:49;;;;;;;;;0.00;0.00;;;;;-146.67;62.10;75326.53;5040570;28;61803;-76
2023/12/14 01:25:14;;;;;;;;;0.75;0.75;;;;;-146.67;60.93;75338.50;5056405;28;62127;-75
2023/12/14 01:27:40;;;;;;;;;4.00;0.00;;;;;-146.67;61.08;75332.50;5044445;28;61932;-75
2023/12/14 01:30:06;;;;;;;;;1.00;0.00;;;;;-146.67;60.58;75344.50;5059723;28;61855;-76
2023/12/14 01:32:31;;;;;;;;;2.50;0.00;;;;;-146.67;60.78;75356.47;5059246;28;65065;-76
2023/12/14 01:34:56;;;;;;;;;0.50;0.00;;;;;-146.67;60.66;75350.50;5054249;28;61933;-76
2023/12/14 01:37:22;;;;;;;;;0.00;0.00;;;;;-146.67;60.51;75362.47;5041179;28;61850;-76
2023/12/14 01:39:47;;;;;;;;;0.00;0.00;;;;;-146.67;60.53;75362.47;5040934;28;62143;-76
2023/12/14 01:42:13;;;;;;;;;1.75;0.50;;;;;-146.67;60.83;75388.44;5040149;28;61841;-76
2023/12/14 01:44:39;;;;;;;;;0.00;0.00;;;;;-146.67;61.27;75396.41;5059985;28;62749;-76
2023/12/14 01:47:04;;;;;;;;;0.00;0.00;;;;;-146.67;61.16;75384.44;5061139;28;62507;-76
2023/12/14 01:49:29;;;;;;;;;0.00;0.00;;;;;-146.67;60.79;75378.44;5060484;28;62627;-76
2023/12/14 01:51:55;;;;;;;;;0.00;0.00;;;;;-146.67;60.56;75374.44;5062371;28;62607;-76
2023/12/14 01:54:20;;;;;;;;;0.00;0.00;;;;;-146.67;60.67;75390.44;5063708;28;61789;-76
2023/12/14 01:56:46;;;;;;;;;0.00;0.00;;;;;-146.67;61.19;75390.44;5058377;28;61934;-76
2023/12/14 01:59:11;;;;;;;;;1.00;0.00;;;;;-146.67;61.18;75406.41;5064015;28;61751;-76
2023/12/14 02:01:44;;;;;;;;;0.00;0.00;;;;;-146.67;61.19;75398.41;5063742;28;62800;-76
2023/12/14 02:04:10;;;;;;;;;1.00;0.00;;;;;-146.67;61.51;75412.38;5063346;28;61896;-76
2023/12/14 02:06:36;;;;;;;;;1.00;0.00;;;;;-146.67;61.21;75400.41;5062997;28;61868;-76
2023/12/14 02:09:02;;;;;;;;;0.00;0.00;;;;;-146.67;61.40;75414.38;5059154;28;61947;-76
2023/12/14 02:11:27;;;;;;;;;0.00;0.00;;;;;-146.67;61.72;75422.38;5043469;28;62844;-76
2023/12/14 02:13:53;;;;;;;;;1.00;0.00;;;;;-146.67;61.45;75420.38;5059090;28;61832;-76
2023/12/14 02:16:18;;;;;;;;;0.00;0.00;;;;;-146.67;61.27;75410.41;5043795;28;61726;-76
2023/12/14 02:18:45;;;;;;;;;0.00;0.00;;;;;-146.67;61.43;75422.38;5059326;28;61797;-76
2023/12/14 02:21:10;;;;;;;;;0.00;0.00;;;;;-146.67;61.18;75426.38;5043716;28;61759;-76
2023/12/14 02:23:45;;;;;;;;;1.50;0.00;;;;;-146.67;61.19;75416.38;5043361;28;61884;-76
2023/12/14 02:26:11;;;;;;;;;0.00;0.00;;;;;-146.67;61.01;75426.38;5042348;28;62085;-76
2023/12/14 02:28:37;;;;;;;;;1.00;0.25;;;;;-146.67;60.76;75422.38;5043970;28;61924;-76
2023/12/14 02:31:02;;;;;;;;;0.00;0.00;;;;;-146.67;60.64;75418.38;5042899;28;62570;-76
2023/12/14 02:33:28;;;;;;;;;0.00;0.00;;;;;-146.67;60.84;75428.38;5060746;28;61915;-76
2023/12/14 02:35:53;;;;;;;;;0.00;0.00;;;;;-146.67;60.56;75430.38;5064061;28;61766;-76
2023/12/14 02:38:18;;;;;;;;;1.25;0.00;;;;;-146.67;60.73;75428.38;5063433;28;61757;-76
2023/12/14 02:40:44;;;;;;;;;0.00;0.00;;;;;-146.67;60.54;75440.34;5062612;28;62669;-76
2023/12/14 02:43:09;;;;;;;;;0.00;0.00;;;;;-146.67;60.34;75440.34;5055536;28;61888;-76
2023/12/14 02:45:34;;;;;;;;;0.00;0.00;;;;;-146.67;60.42;75430.38;5042351;28;62133;-76
2023/12/14 02:48:00;;;;;;;;;0.00;0.00;;;;;-146.67;60.19;75426.38;5042277;28;61816;-76
2023/12/14 02:50:25;;;;;;;;;0.00;0.00;;;;;-146.67;59.88;75416.38;5041196;28;61908;-76
2023/12/14 02:52:50;;;;;;;;;0.75;0.00;;;;;-146.67;59.85;75438.34;5040605;28;61885;-76
2023/12/14 02:55:16;;;;;;;;;0.00;0.00;;;;;-146.67;60.01;75432.34;5042359;28;61944;-76
2023/12/14 02:57:41;;;;;;;;;0.00;0.00;;;;;-146.67;59.85;75446.34;5042851;28;62286;-76
2023/12/14 03:00:07;;;;;;;;;0.00;0.00;;;;;-146.67;59.85;75436.34;5041945;28;61899;-76
2023/12/14 03:02:34;;;;;;;;;0.00;0.00;;;;;-146.67;59.78;75424.38;5042665;28;61915;-76
2023/12/14 03:04:59;;;;;;;;;0.00;0.00;;;;;-146.67;59.65;75418.38;5043346;28;61913;-76
2023/12/14 03:07:24;;;;;;;;;0.00;0.00;;;;;-146.67;59.41;75418.38;5042675;28;61880;-76
2023/12/14 03:09:50;;;;;;;;;0.00;0.00;;;;;-146.67;59.35;75438.34;5047987;28;63993;-76
2023/12/14 03:12:15;;;;;;;;;1.25;0.00;;;;;-146.67;59.46;75444.34;5042862;28;61922;-76
2023/12/14 03:14:40;;;;;;;;;0.00;0.00;;;;;-146.67;59.56;75450.34;5042870;28;61829;-76
2023/12/14 03:17:12;;;;;;;;;0.00;0.00;;;;;-146.67;59.76;75454.31;5043270;28;61904;-76
2023/12/14 03:19:38;;;;;;;;;0.00;0.00;;;;;-146.67;59.71;75460.31;5041788;28;62440;-76
2023/12/14 03:22:03;;;;;;;;;0.00;0.00;;;;;-146.67;60.04;75466.31;5042461;28;61794;-76
2023/12/14 03:24:29;;;;;;;;;0.00;0.00;;;;;-146.67;59.88;75474.28;5042727;28;61865;-76
2023/12/14 03:26:54;;;;;;;;;0.00;0.00;;;;;-146.67;59.96;75476.28;5041799;28;61906;-76
2023/12/14 03:29:21;;;;;;;;;0.00;0.00;;;;;-146.67;60.15;75480.28;5042280;28;62628;-76
2023/12/14 03:31:46;;;;;;;;;0.25;0.00;;;;;-146.67;60.31;75484.28;5055794;28;61880;-76
2023/12/14 03:34:11;;;;;;;;;2.00;0.00;;;;;-146.67;60.15;75486.28;5060859;28;62427;-76
2023/12/14 03:36:37;;;;;;;;;1.00;0.00;;;;;-146.67;60.17;75478.28;5062638;28;62331;-76
2023/12/14 03:39:02;;;;;;;;;1.00;0.00;;;;;-146.67;60.02;75484.28;5062316;28;62071;-76
2023/12/14 03:41:28;;;;;;;;;1.25;0.50;;;;;-146.67;60.34;75478.28;5061787;28;61801;-76
2023/12/14 03:43:53;;;;;;;;;2.00;0.00;;;;;-146.67;59.91;75482.28;5049689;28;61932;-76
2023/12/14 03:46:18;;;;;;;;;0.00;0.00;;;;;-146.67;60.22;75486.28;5042866;28;62129;-76
2023/12/14 03:48:44;;;;;;;;;0.00;0.00;;;;;-146.67;59.96;75490.28;5060078;28;62894;-76
2023/12/14 03:51:09;;;;;;;;;1.00;0.00;;;;;-146.67;59.90;75494.25;5061380;28;61972;-76
2023/12/14 03:53:34;;;;;;;;;0.00;0.00;;;;;-146.67;59.94;75506.25;5062439;28;61938;-76
2023/12/14 03:56:00;;;;;;;;;2.25;1.00;;;;;-146.67;60.12;75514.22;5048020;28;62059;-76
2023/12/14 03:58:26;;;;;;;;;0.00;0.00;;;;;-146.67;60.08;75510.25;5040375;28;63715;-76
2023/12/14 04:00:51;;;;;;;;;1.50;0.50;;;;;-146.67;59.94;75512.25;5042477;28;62094;-76
2023/12/14 04:03:17;;;;;;;;;1.50;0.00;;;;;-146.67;59.85;75514.22;5042243;28;62180;-76
2023/12/14 04:05:44;;;;;;;;;0.00;0.00;;;;;-146.67;59.90;75512.25;5041876;28;62141;-76
2023/12/14 04:08:09;;;;;;;;;0.25;0.25;;;;;-146.67;59.66;75520.22;5040810;28;64404;-76
2023/12/14 04:10:35;;;;;;;;;2.00;1.00;;;;;-146.67;59.87;75526.22;5061404;28;62135;-76
2023/12/14 04:13:00;;;;;;;;;1.00;0.00;;;;;-146.67;59.79;75526.22;5060700;28;61770;-76
2023/12/14 04:15:25;;;;;;;;;1.25;1.25;;;;;-146.67;59.71;75526.22;5061527;28;62071;-76
2023/12/14 04:17:51;;;;;;;;;2.50;1.00;;;;;-146.67;59.54;75534.19;5061368;28;61739;-76
2023/12/14 04:20:16;;;;;;;;;0.50;0.50;;;;;-146.67;59.81;75534.19;5060768;28;62001;-76
2023/12/14 04:22:43;;;;;;;;;1.75;1.00;;;;;-146.67;59.53;75528.22;5061866;28;62271;-76
2023/12/14 04:25:09;;;;;;;;;2.00;1.00;;;;;-146.67;59.41;75544.19;5060632;28;62044;-76
2023/12/14 04:27:34;;;;;;;;;1.75;1.00;;;;;-146.67;59.64;75548.19;5061463;28;61898;-76
2023/12/14 04:29:59;;;;;;;;;4.50;1.50;;;;;-146.67;59.54;75550.19;5061840;28;62073;-76
2023/12/14 04:32:25;;;;;;;;;2.25;1.75;;;;;-146.67;59.33;75560.16;5061942;28;61988;-76
2023/12/14 04:34:50;;;;;;;;;4.25;1.25;;;;;-146.67;59.31;75560.16;5061283;28;61773;-76
2023/12/14 04:37:16;;;;;;;;;1.50;1.25;;;;;-146.67;59.30;75574.13;5061430;28;62729;-76
2023/12/14 04:39:41;;;;;;;;;4.25;1.25;;;;;-146.67;59.43;75588.13;5061586;28;62205;-76
2023/12/14 04:42:06;;;;;;;;;3.50;2.00;;;;;-146.67;59.63;75588.13;5062062;28;61964;-76
2023/12/14 04:44:32;;;;;;;;;2.75;2.00;;;;;-146.67;59.52;75602.09;5061770;28;62331;-76
2023/12/14 04:46:57;;;;;;;;;1.75;1.75;;;;;-146.67;59.70;75620.06;5060951;28;62776;-76
2023/12/14 04:49:22;;;;;;;;;4.25;2.00;;;;;-146.67;59.69;75626.06;5060791;28;62336;-76
2023/12/14 04:51:48;;;;;;;;;1.25;1.00;;;;;-146.67;59.74;75614.09;5061668;28;61858;-76
2023/12/14 04:54:13;;;;;;;;;3.50;2.50;;;;;-146.67;59.50;75620.06;5061919;28;61771;-76
2023/12/14 04:56:38;;;;;;;;;2.00;2.00;;;;;-146.67;59.57;75628.06;5061106;28;61967;-76
2023/12/14 04:59:04;;;;;;;;;6.00;1.00;;;;;-146.67;59.55;75632.06;5061654;28;61782;-76
2023/12/14 05:01:29;;;;;;;;;2.00;2.00;;;;;-146.67;59.51;75638.03;5061869;28;61961;-76
2023/12/14 05:03:55;;;;;;;;;2.00;2.00;;;;;-146.67;59.59;75630.06;5059687;28;61911;-76
2023/12/14 05:06:21;;;;;;;;;1.50;1.50;;;;;-146.67;59.41;75630.06;5061099;28;61941;-76
2023/12/14 05:08:46;;;;;;;;;2.50;2.50;;;;;-146.67;59.23;75634.06;5061438;28;61985;-76
2023/12/14 05:11:15;;;;;;;;;1.75;1.75;;;;;-146.67;59.08;75638.03;5060572;28;61776;-77
2023/12/14 05:13:41;;;;;;;;;1.50;1.00;;;;;-146.67;59.01;75634.06;5061828;28;61974;-76
2023/12/14 05:16:06;;;;;;;;;3.00;2.00;;;;;-146.67;58.80;75628.06;5060563;28;61920;-76
2023/12/14 05:18:32;;;;;;;;;5.25;3.00;;;;;-146.67;58.60;75628.06;5060757;28;61908;-76
2023/12/14 05:20:57;;;;;;;;;2.75;2.75;;;;;-146.67;58.70;75646.03;5052391;28;62133;-76
2023/12/14 05:23:23;;;;;;;;;9.00;3.00;;;;;-146.67;58.98;75668.00;5041330;28;61841;-76
2023/12/14 05:25:49;;;;;;;;;6.00;2.25;;;;;-146.67;58.94;75660.00;5042079;28;61904;-76
2023/12/14 05:28:14;;;;;;;;;1.50;1.50;;;;;-146.67;59.20;75662.00;5044804;28;62014;-76
2023/12/14 05:30:40;;;;;;;;;5.00;2.00;;;;;-146.67;59.06;75664.00;5044465;28;62080;-76
2023/12/14 05:33:05;;;;;;;;;1.00;1.00;;;;;-146.67;59.33;75693.97;5044214;28;61941;-76
2023/12/14 05:35:30;;;;;;;;;3.00;3.00;;;;;-146.67;59.56;75693.97;5043827;28;61666;-76
2023/12/14 05:37:56;;;;;;;;;4.00;3.00;;;;;-146.67;59.38;75689.97;5043732;28;61774;-76
2023/12/14 05:40:21;;;;;;;;;4.00;1.50;;;;;-146.67;59.10;75674.00;5049418;28;61743;-76
2023/12/14 05:42:46;;;;;;;;;3.50;1.50;;;;;-146.67;58.66;75672.00;5064494;28;62150;-76
2023/12/14 05:45:12;;;;;;;;;1.75;1.75;;;;;-146.67;58.58;75676.00;5063641;28;61800;-76
2023/12/14 05:47:38;;;;;;;;;4.25;3.25;;;;;-146.67;58.50;75676.00;5063920;28;62045;-76
2023/12/14 05:50:04;;;;;;;;;7.00;4.00;;;;;-146.67;58.27;75672.00;5063714;28;61995;-76
2023/12/14 05:52:30;;;;;;;;;0.75;0.75;;;;;-146.67;58.39;75678.00;5063993;28;61996;-76
2023/12/14 05:54:55;;;;;;;;;4.25;2.00;;;;;-146.67;58.26;75689.97;5062384;28;62599;-76
2023/12/14 05:57:21;;;;;;;;;4.25;1.25;;;;;-146.67;58.58;75685.97;5063070;28;61841;-76
2023/12/14 05:59:46;;;;;;;;;4.25;3.00;;;;;-146.67;58.42;75679.97;5064563;28;62022;-76
2023/12/14 06:02:12;;;;;;;;;4.00;2.50;;;;;-146.67;58.15;75683.97;5064144;28;61960;-77
2023/12/14 06:04:37;;;;;;;;;2.00;1.00;;;;;-146.67;58.03;75685.97;5043601;28;62758;-78
2023/12/14 06:07:03;;;;;;;;;6.75;2.50;;;;;-146.67;57.92;75687.97;5043652;28;61837;-77
2023/12/14 06:09:35;;;;;;;;;3.25;1.25;;;;;-146.67;58.02;75701.94;5062506;28;62058;-77
2023/12/14 06:12:04;;;;;;;;;6.00;3.00;;;;;-146.67;58.00;75707.94;5064325;28;62085;-77
2023/12/14 06:14:30;;;;;;;;;3.00;2.00;;;;;-146.67;57.81;75709.94;5063370;28;61826;-77
2023/12/14 06:16:56;;;;;;;;;5.00;2.25;;;;;-146.67;57.94;75707.94;5063299;28;61646;-77
2023/12/14 06:19:22;;;;;;;;;2.50;2.50;;;;;-146.67;57.70;75729.91;5062988;28;61870;-76
2023/12/14 06:21:48;;;;;;;;;1.50;1.50;;;;;-146.67;57.87;75717.94;5062356;28;62112;-76
2023/12/14 06:24:13;;;;;;;;;3.00;2.00;;;;;-146.67;57.60;75733.91;5061971;28;61970;-76
2023/12/14 06:26:43;;;;;;;;;2.00;2.00;;;;;-146.67;57.75;75741.91;5076403;28;62116;-77
2023/12/14 06:29:10;;;;;;;;;5.75;1.25;;;;;-146.67;57.76;75741.91;5083752;27;61860;-76
2023/12/14 06:31:35;;;;;;;;;1.00;1.00;;;;;-146.67;57.76;75739.91;5059015;27;61747;-76
2023/12/14 06:34:03;;;;;;;;;1.75;1.25;;;;;-146.67;57.52;75743.88;5060953;28;65083;-77
2023/12/14 06:36:29;;;;;;;;;2.50;0.75;;;;;-146.67;57.54;75763.88;5062396;28;62016;-77
2023/12/14 06:38:55;;;;;;;;;3.00;0.50;;;;;-146.67;57.89;75775.84;5069699;28;61952;-77
2023/12/14 06:41:22;;;;;;;;;2.50;1.50;;;;;-146.67;57.86;75773.84;5058793;28;61752;-77
2023/12/14 06:43:48;;;;;;;;;2.00;1.00;;;;;-146.67;57.86;75769.84;5052663;28;62008;-78
2023/12/14 06:46:13;;;;;;;;;2.00;1.00;;;;;-146.67;57.74;75773.84;5050314;28;62658;-77
2023/12/14 06:48:39;;;;;;;;;4.50;2.00;;;;;-146.67;58.06;75789.81;5051406;28;62008;-77
2023/12/14 06:51:04;;;;;;;;;1.00;1.00;;;;;-146.67;58.06;75801.81;5053115;28;61984;-77
2023/12/14 06:53:30;;;;;;;;;1.00;1.00;;;;;-146.67;58.07;75801.81;5049735;28;62837;-77
2023/12/14 06:55:55;;;;;;;;;6.50;1.00;;;;;-146.67;57.98;75805.81;5052795;28;62035;-77
2023/12/14 06:58:21;;;;;;;;;1.00;0.25;;;;;-146.67;58.22;75811.78;5051448;28;61849;-77
2023/12/14 07:00:47;;;;;;;;;3.00;1.00;;;;;-146.67;58.21;75819.78;5049468;28;61860;-77
2023/12/14 07:03:13;;;;;;;;;1.00;0.50;;;;;-146.67;58.06;75813.78;5052962;28;62556;-77
2023/12/14 07:05:38;;;;;;;;;0.50;0.50;;;;;-146.67;57.95;75807.78;5044737;28;62057;-77
2023/12/14 07:08:04;;;;;;;;;1.00;1.00;;;;;-146.67;57.70;75809.78;5051681;28;61789;-77
2023/12/14 07:10:30;;;;;;;;;2.00;0.75;;;;;-146.67;57.72;75817.78;5058198;28;62222;-78
2023/12/14 07:12:55;;;;;;;;;2.00;1.00;;;;;-146.67;57.86;75813.78;5075187;28;62792;-79
2023/12/14 07:15:20;;;;;;;;;1.00;1.00;;;;;-146.67;57.77;75813.78;5082513;27;62074;-77
2023/12/14 07:17:46;;;;;;;;;2.00;1.00;;;;;-146.67;57.83;75817.78;5082818;27;61932;-77
2023/12/14 07:20:11;;;;;;;;;4.25;1.50;;;;;-146.67;57.69;75817.78;5079162;28;61812;-77
2023/12/14 07:22:37;;;;;;;;;0.00;0.00;;;;;-146.67;57.52;75821.78;5059533;28;63609;-77
2023/12/14 07:25:03;;;;;;;;;3.50;2.00;;;;;-146.67;58.88;75815.78;5061800;28;61814;-76
2023/12/14 07:27:29;;;;;;;;;1.00;0.00;;;;;-146.67;57.45;75817.78;5061753;28;62136;-77
2023/12/14 07:29:54;;;;;;;;;1.50;1.00;;;;;-146.67;57.37;75835.75;5061383;28;62347;-77
2023/12/14 07:32:19;;;;;;;;;4.00;1.00;;;;;-146.67;57.54;75825.78;5061198;28;62155;-77
2023/12/14 07:34:45;;;;;;;;;1.75;1.25;;;;;-146.67;57.50;75839.75;5061318;28;62125;-77
2023/12/14 07:37:11;;;;;;;;;2.50;2.00;;;;;-146.67;57.13;75835.75;5062240;28;61899;-76
2023/12/14 07:39:37;;;;;;;;;2.00;1.00;;;;;-146.67;56.92;75845.75;5062992;28;61765;-76
2023/12/14 07:42:02;;;;;;;;;1.50;1.50;;;;;-146.67;56.96;75863.72;5062505;28;61832;-76
2023/12/14 07:44:29;;;;;;;;;2.25;2.25;;;;;-146.67;56.97;75873.69;5062070;28;61796;-77
2023/12/14 07:46:59;;;;;;;;;1.00;1.00;;;;;-146.67;57.01;75891.69;5062030;28;62047;-76
2023/12/14 07:49:25;;;;;;;;;4.00;1.00;;;;;-146.67;57.04;75909.66;5060953;28;61884;-77
2023/12/14 07:51:54;;;;;;;;;1.75;0.25;;;;;-146.67;57.15;75901.66;5065032;28;61702;-77
2023/12/14 07:54:20;;;;;;;;;1.00;1.00;;;;;-146.67;56.99;75905.66;5082257;27;62423;-77
2023/12/14 07:56:45;;;;;;;;;0.75;0.75;;;;;-146.67;57.08;75901.66;5076507;27;61891;-76
2023/12/14 07:59:13;;;;;;;;;1.00;1.00;;;;;-146.67;56.68;75905.66;5083066;27;61785;-77
2023/12/14 08:01:39;;;;;;;;;1.00;1.00;;;;;-146.67;56.75;75915.63;5071124;28;61873;-77
2023/12/14 08:04:05;;;;;;;;;1.25;1.25;;;;;-146.67;56.48;75953.59;5061951;28;62195;-77
2023/12/14 08:06:30;;;;;;;;;2.00;2.00;;;;;-146.67;56.94;75963.56;5061978;28;62111;-77
2023/12/14 08:08:57;;;;;;;;;4.50;1.00;;;;;-146.67;56.78;75967.56;5062487;28;61950;-76
2023/12/14 08:11:23;;;;;;;;;2.75;2.00;;;;;-146.67;56.85;75967.56;5052486;28;61946;-75
2023/12/14 08:13:49;;;;;;;;;2.75;2.75;;;;;-146.67;56.48;75979.56;5042075;28;61913;-76
2023/12/14 08:16:15;;;;;;;;;2.00;2.00;;;;;-146.67;56.20;75975.56;5042239;28;61837;-76
2023/12/14 08:18:42;;;;;;;;;4.50;2.50;;;;;-146.67;56.34;75965.56;5054060;28;61950;-76
2023/12/14 08:21:07;;;;;;;;;4.00;3.75;;;;;-146.67;55.72;75963.56;5060436;28;62412;-76
2023/12/14 08:23:32;;;;;;;;;2.25;2.00;;;;;-146.67;55.25;75979.56;5059978;28;61835;-76
2023/12/14 08:25:58;;;;;;;;;2.00;2.00;;;;;-146.67;55.65;75973.56;5060306;28;61788;-76
2023/12/14 08:28:24;;;;;;;;;4.25;3.00;;;;;-146.67;55.30;75967.56;5060317;28;61860;-76
2023/12/14 08:30:49;;;;;;;;;4.25;2.50;;;;;-146.67;55.36;75971.56;5041090;28;62514;-77
2023/12/14 08:33:15;;;;;;;;;2.25;2.25;;;;;-146.67;55.77;75985.53;5041551;28;61968;-76
2023/12/14 08:35:40;;;;;;;;;2.75;2.75;;;;;-146.67;55.91;75987.53;5053309;28;62235;-76
2023/12/14 08:38:06;;;;;;;;;7.75;3.25;;;;;-146.67;55.67;75993.53;5062066;28;61785;-76
2023/12/14 08:40:31;;;;;;;;;2.75;2.75;;;;;-146.67;55.46;75993.53;5061205;28;62600;-76
2023/12/14 08:42:57;;;;;;;;;2.50;1.75;;;;;-146.67;55.40;75997.53;5061817;28;61857;-76
2023/12/14 08:45:22;;;;;;;;;5.00;5.00;;;;;-146.67;55.43;75993.53;5061794;28;61969;-76
2023/12/14 08:47:48;;;;;;;;;6.00;3.50;;;;;-146.67;55.29;75985.53;5061654;28;62028;-76
2023/12/14 08:50:13;;;;;;;;;3.00;2.50;;;;;-146.67;55.10;75991.53;5060397;28;62637;-76
2023/12/14 08:52:39;;;;;;;;;5.50;5.50;;;;;-146.67;55.00;76003.50;5042490;28;61905;-76
2023/12/14 08:55:05;;;;;;;;;7.00;2.50;;;;;-146.67;55.23;75991.53;5041196;28;61851;-75
2023/12/14 08:57:30;;;;;;;;;4.25;4.25;;;;;-146.67;54.94;75999.53;5041910;28;61811;-76
2023/12/14 08:59:56;;;;;;;;;6.75;2.25;;;;;-146.67;55.13;75989.53;5040989;28;61988;-76
2023/12/14 09:02:21;;;;;;;;;4.50;3.50;;;;;-146.67;54.93;75971.56;5045272;28;62256;-76
2023/12/14 09:04:47;;;;;;;;;3.75;2.00;;;;;-146.67;54.60;75979.56;5044867;28;61960;-76
2023/12/14 09:07:12;;;;;;;;;4.00;3.50;;;;;-146.67;54.53;75989.53;5045464;28;62141;-76
2023/12/14 09:09:37;;;;;;;;;3.00;3.00;;;;;-146.67;54.49;75995.53;5044189;28;61980;-76
2023/12/14 09:12:03;;;;;;;;;2.00;0.00;;;;;-146.67;54.83;75993.53;5044993;28;61879;-76
2023/12/14 09:14:29;;;;;;;;;5.75;4.25;;;;;-146.67;54.17;76001.53;5062814;28;61881;-76
2023/12/14 09:16:55;;;;;;;;;4.00;2.25;;;;;-146.67;54.35;76021.50;5065452;28;62174;-76
2023/12/14 09:19:20;;;;;;;;;2.25;1.00;;;;;-146.67;54.00;76019.50;5063689;28;61801;-76
2023/12/14 09:21:46;;;;;;;;;4.00;2.75;;;;;-146.67;54.00;76003.50;5064728;28;62109;-76
2023/12/14 09:24:11;;;;;;;;;3.75;2.00;;;;;-146.67;54.24;75985.53;5064492;28;61795;-76
2023/12/14 09:26:36;;;;;;;;;1.00;1.00;;;;;-146.67;53.95;75985.53;5064056;28;61951;-76
2023/12/14 09:29:02;;;;;;;;;5.25;2.00;;;;;-146.67;53.67;75987.53;5064469;28;62003;-76
2023/12/14 09:31:28;;;;;;;;;4.00;4.00;;;;;-146.67;53.90;75973.56;5064949;28;62035;-76
2023/12/14 09:33:53;;;;;;;;;2.00;2.00;;;;;-146.67;53.74;75971.56;5064608;28;61808;-76
2023/12/14 09:36:19;;;;;;;;;5.75;3.00;;;;;-146.67;53.74;75977.56;5065219;28;62005;-76
2023/12/14 09:38:45;;;;;;;;;0.00;0.00;;;;;-146.67;53.26;75989.53;5044312;28;63104;-76
2023/12/14 09:41:10;;;;;;;;;5.50;5.50;;;;;-146.67;53.34;76011.50;5044672;28;61984;-76
2023/12/14 09:43:36;;;;;;;;;6.00;4.00;;;;;-146.67;53.02;76009.50;5044743;28;61770;-77
2023/12/14 09:46:02;;;;;;;;;6.00;4.75;;;;;-146.67;53.23;76017.50;5044413;28;62152;-76
2023/12/14 09:48:29;;;;;;;;;6.00;3.00;;;;;-146.67;53.37;76009.50;5042256;28;64919;-76
2023/12/14 09:50:55;;;;;;;;;5.00;5.00;;;;;-146.67;53.09;76007.50;5043927;28;62141;-76
2023/12/14 09:53:20;;;;;;;;;4.00;3.00;;;;;-146.67;53.09;76005.50;5044139;28;61867;-76
2023/12/14 09:55:45;;;;;;;;;3.00;3.00;;;;;-146.67;52.76;76015.50;5044622;28;61727;-76
2023/12/14 09:58:12;;;;;;;;;3.00;3.00;;;;;-146.67;52.64;76017.50;5043315;28;61695;-76
2023/12/14 10:00:42;;;;;;;;;6.00;3.00;;;;;-146.67;52.93;76027.47;5044488;28;62002;-76
2023/12/14 10:03:28;;;;;;;;;6.75;3.50;;;;;-146.67;52.85;76017.50;5050221;28;61900;-76
2023/12/14 10:05:55;;;;;;;;;5.25;1.50;;;;;-146.67;52.67;76027.47;5064614;28;61977;-76
2023/12/14 10:08:21;;;;;;;;;5.00;3.75;;;;;-146.67;52.43;76027.47;5063185;28;61894;-76
2023/12/14 10:10:51;;;;;;;;;1.00;1.00;;;;;-146.67;52.56;76027.47;5062825;28;62222;-76
2023/12/14 10:13:16;;;;;;;;;6.00;2.25;;;;;-146.67;52.02;76031.47;5063198;28;62131;-76
2023/12/14 10:15:47;;;;;;;;;4.25;4.25;;;;;-146.67;51.42;76045.47;5064332;28;62189;-76
2023/12/14 10:18:24;;;;;;;;;4.25;3.50;;;;;-146.67;51.41;76043.47;5063064;28;61746;-76
2023/12/14 10:20:50;;;;;;;;;3.75;2.25;;;;;-146.67;51.20;76037.47;5049912;28;61940;-76
2023/12/14 10:23:15;;;;;;;;;2.00;2.00;;;;;-146.67;51.80;76019.50;5062395;28;61894;-76
2023/12/14 10:25:42;;;;;;;;;4.00;4.00;;;;;-146.67;51.21;76013.50;5064451;28;61860;-76
2023/12/14 10:28:08;;;;;;;;;6.00;6.00;;;;;-146.67;51.16;76011.50;5048741;28;62870;-77
2023/12/14 10:30:33;;;;;;;;;7.00;4.00;;;;;-146.67;51.54;76007.50;5043809;28;61816;-76
2023/12/14 10:32:58;;;;;;;;;3.50;3.50;;;;;-146.67;50.90;76021.50;5043626;28;61936;-76
2023/12/14 10:35:24;;;;;;;;;3.25;3.25;;;;;-146.67;51.15;76043.47;5043931;28;61944;-76
2023/12/14 10:37:51;;;;;;;;;7.75;5.50;;;;;-146.67;51.27;76047.47;5041659;28;64030;-77
2023/12/14 10:40:17;;;;;;;;;9.00;4.25;;;;;-146.67;50.86;76055.44;5043538;28;61691;-76
2023/12/14 10:42:44;;;;;;;;;6.25;5.00;;;;;-146.67;51.10;76045.47;5063212;28;62157;-76
2023/12/14 10:45:16;;;;;;;;;6.75;5.75;;;;;-146.67;51.07;76029.47;5062489;28;61988;-76
2023/12/14 10:47:45;;;;;;;;;5.25;3.50;;;;;-146.67;50.51;75997.53;5063189;28;62456;-76
2023/12/14 10:50:11;;;;;;;;;5.50;3.50;;;;;-146.67;50.30;75993.53;5063119;28;61844;-76
2023/12/14 10:52:39;;;;;;;;;5.75;5.75;;;;;-146.67;51.09;75975.56;5063464;28;61963;-76
2023/12/14 10:55:07;;;;;;;;;10.25;2.75;;;;;-146.67;50.10;75993.53;5062601;28;61766;-76
2023/12/14 10:57:34;;;;;;;;;6.25;6.25;;;;;-146.67;50.63;76017.50;5063081;28;62864;-76
2023/12/14 11:00:02;;;;;;;;;5.75;3.50;;;;;-146.67;50.35;76027.47;5063590;28;61835;-76
2023/12/14 11:02:27;;;;;;;;;2.50;2.00;;;;;-146.67;50.29;76031.47;5063546;28;62180;-76
2023/12/14 11:05:05;;;;;;;;;2.00;1.00;;;;;-146.67;50.20;76045.47;5063234;28;62279;-76
2023/12/14 11:07:44;;;;;;;;;3.50;3.00;;;;;-146.67;50.18;76059.44;5062217;28;61884;-76
2023/12/14 11:10:11;;;;;;;;;6.75;3.00;;;;;-146.67;49.84;76057.44;5061912;28;61953;-76